sensor_id;sensor_type;location;lat;lon;timestamp;temperature;humidity
54461;DHT22;69977;49.414;11.010;2024-01-30T00:02:11;-1.90;99.90
54461;DHT22;69977;49.414;11.010;2024-01-30T00:04:37;-1.90;99.90
54461;DHT22;69977;49.414;11.010;2024-01-30T00:07:03;-1.80;99.90
54461;DHT22;69977;49.414;11.010;2024-01-30T00:09:29;-1.80;99.90
54461;DHT22;69977;49.414;11.010;2024-01-30T00:11:56;-1.90;99.90
54461;DHT22;69977;49.414;11.010;2024-01-30T00:14:22;-1.90;99.90
54461;DHT22;69977;49.414;11.010;2024-01-30T00:16:48;-1.80;99.90
54461;DHT22;69977;49.414;11.010;2024-01-30T00:19:14;-1.90;99.90
54461;DHT22;69977;49.414;11.010;2024-01-30T00:21:40;-1.90;99.90
54461;DHT22;69977;49.414;11.010;2024-01-30T00:24:06;-1.90;99.90
54461;DHT22;69977;49.414;11.010;2024-01-30T00:26:33;-1.90;99.90
54461;DHT22;69977;49.414;11.010;2024-01-30T00:28:59;-1.90;99.90
54461;DHT22;69977;49.414;11.010;2024-01-30T00:31:25;-1.90;99.90
54461;DHT22;69977;49.414;11.010;2024-01-30T00:33:51;-1.90;99.90
54461;DHT22;69977;49.414;11.010;2024-01-30T00:36:17;-1.90;99.90
54461;DHT22;69977;49.414;11.010;2024-01-30T00:38:43;-1.90;99.90
54461;DHT22;69977;49.414;11.010;2024-01-30T00:41:09;-1.80;99.90
54461;DHT22;69977;49.414;11.010;2024-01-30T00:43:35;-1.80;99.90
54461;DHT22;69977;49.414;11.010;2024-01-30T00:46:01;-1.70;99.90
54461;DHT22;69977;49.414;11.010;2024-01-30T00:48:27;-1.80;99.90
54461;DHT22;69977;49.414;11.010;2024-01-30T00:50:53;-1.70;99.90
54461;DHT22;69977;49.414;11.010;2024-01-30T00:53:19;-1.80;99.90
54461;DHT22;69977;49.414;11.010;2024-01-30T00:55:45;-1.70;99.90
54461;DHT22;69977;49.414;11.010;2024-01-30T00:58:11;-1.60;99.90
54461;DHT22;69977;49.414;11.010;2024-01-30T01:00:37;-1.60;99.90
54461;DHT22;69977;49.414;11.010;2024-01-30T01:03:03;-1.60;99.90
54461;DHT22;69977;49.414;11.010;2024-01-30T01:05:29;-1.60;99.90
54461;DHT22;69977;49.414;11.010;2024-01-30T01:07:55;-1.60;99.90
54461;DHT22;69977;49.414;11.010;2024-01-30T01:10:21;-1.50;99.90
54461;DHT22;69977;49.414;11.010;2024-01-30T01:12:48;-1.40;99.90
54461;DHT22;69977;49.414;11.010;2024-01-30T01:15:14;-1.40;99.90
54461;DHT22;69977;49.414;11.010;2024-01-30T01:17:40;-1.40;99.90
54461;DHT22;69977;49.414;11.010;2024-01-30T01:20:07;-1.40;99.90
54461;DHT22;69977;49.414;11.010;2024-01-30T01:22:33;-1.30;99.90
54461;DHT22;69977;49.414;11.010;2024-01-30T01:25:00;-1.20;99.90
54461;DHT22;69977;49.414;11.010;2024-01-30T01:27:26;-1.30;99.90
54461;DHT22;69977;49.414;11.010;2024-01-30T01:29:52;-1.20;99.90
54461;DHT22;69977;49.414;11.010;2024-01-30T01:32:18;-1.20;99.90
54461;DHT22;69977;49.414;11.010;2024-01-30T01:34:44;-1.20;99.90
54461;DHT22;69977;49.414;11.010;2024-01-30T01:37:10;-1.20;99.90
54461;DHT22;69977;49.414;11.010;2024-01-30T01:39:36;-1.20;99.90
54461;DHT22;69977;49.414;11.010;2024-01-30T01:42:03;-1.20;99.90
54461;DHT22;69977;49.414;11.010;2024-01-30T01:44:29;-1.10;99.90
54461;DHT22;69977;49.414;11.010;2024-01-30T01:46:55;-1.10;99.90
54461;DHT22;69977;49.414;11.010;2024-01-30T01:49:25;-1.10;99.90
54461;DHT22;69977;49.414;11.010;2024-01-30T01:51:54;-1.20;99.90
54461;DHT22;69977;49.414;11.010;2024-01-30T01:54:23;-1.10;99.90
54461;DHT22;69977;49.414;11.010;2024-01-30T01:56:50;-1.10;99.90
54461;DHT22;69977;49.414;11.010;2024-01-30T01:59:17;-1.10;99.90
54461;DHT22;69977;49.414;11.010;2024-01-30T02:01:43;-1.00;99.90
54461;DHT22;69977;49.414;11.010;2024-01-30T02:04:11;-1.10;99.90
54461;DHT22;69977;49.414;11.010;2024-01-30T02:06:37;-1.10;99.90
54461;DHT22;69977;49.414;11.010;2024-01-30T02:09:04;-1.10;99.90
54461;DHT22;69977;49.414;11.010;2024-01-30T02:11:30;-1.10;99.90
54461;DHT22;69977;49.414;11.010;2024-01-30T02:13:57;-1.00;99.90
54461;DHT22;69977;49.414;11.010;2024-01-30T02:16:27;-1.00;99.90
54461;DHT22;69977;49.414;11.010;2024-01-30T02:18:53;-1.10;99.90
54461;DHT22;69977;49.414;11.010;2024-01-30T02:21:19;-1.10;99.90
54461;DHT22;69977;49.414;11.010;2024-01-30T02:23:47;-1.10;99.90
54461;DHT22;69977;49.414;11.010;2024-01-30T02:26:14;-1.10;99.90
54461;DHT22;69977;49.414;11.010;2024-01-30T02:28:40;-1.20;99.90
54461;DHT22;69977;49.414;11.010;2024-01-30T02:31:06;-1.20;99.90
54461;DHT22;69977;49.414;11.010;2024-01-30T02:36:14;-1.00;99.90
54461;DHT22;69977;49.414;11.010;2024-01-30T02:38:41;-1.00;99.90
54461;DHT22;69977;49.414;11.010;2024-01-30T02:41:07;-1.00;99.90
54461;DHT22;69977;49.414;11.010;2024-01-30T02:43:33;-1.00;99.90
54461;DHT22;69977;49.414;11.010;2024-01-30T02:45:58;-1.00;99.90
54461;DHT22;69977;49.414;11.010;2024-01-30T02:48:26;-1.10;99.90
54461;DHT22;69977;49.414;11.010;2024-01-30T02:50:52;-1.00;99.90
54461;DHT22;69977;49.414;11.010;2024-01-30T02:53:18;-1.00;99.90
54461;DHT22;69977;49.414;11.010;2024-01-30T02:55:44;-1.00;99.90
54461;DHT22;69977;49.414;11.010;2024-01-30T02:58:10;-1.00;99.90
54461;DHT22;69977;49.414;11.010;2024-01-30T03:00:36;-1.10;99.90
54461;DHT22;69977;49.414;11.010;2024-01-30T03:03:02;-1.10;99.90
54461;DHT22;69977;49.414;11.010;2024-01-30T03:05:28;-1.00;99.90
54461;DHT22;69977;49.414;11.010;2024-01-30T03:07:54;-1.00;99.90
54461;DHT22;69977;49.414;11.010;2024-01-30T03:10:19;-1.00;99.90
54461;DHT22;69977;49.414;11.010;2024-01-30T03:12:45;-1.10;99.90
54461;DHT22;69977;49.414;11.010;2024-01-30T03:15:12;-1.20;99.90
54461;DHT22;69977;49.414;11.010;2024-01-30T03:17:37;-1.10;99.90
54461;DHT22;69977;49.414;11.010;2024-01-30T03:20:04;-1.10;99.90
54461;DHT22;69977;49.414;11.010;2024-01-30T03:22:31;-1.20;99.90
54461;DHT22;69977;49.414;11.010;2024-01-30T03:24:57;-1.20;99.90
54461;DHT22;69977;49.414;11.010;2024-01-30T03:27:23;-1.20;99.90
54461;DHT22;69977;49.414;11.010;2024-01-30T03:29:49;-1.20;99.90
54461;DHT22;69977;49.414;11.010;2024-01-30T03:32:15;-1.20;99.90
54461;DHT22;69977;49.414;11.010;2024-01-30T03:34:41;-1.20;99.90
54461;DHT22;69977;49.414;11.010;2024-01-30T03:37:07;-1.20;99.90
54461;DHT22;69977;49.414;11.010;2024-01-30T03:39:32;-1.30;99.90
54461;DHT22;69977;49.414;11.010;2024-01-30T03:41:58;-1.40;99.90
54461;DHT22;69977;49.414;11.010;2024-01-30T03:44:24;-1.40;99.90
54461;DHT22;69977;49.414;11.010;2024-01-30T03:46:50;-1.40;99.90
54461;DHT22;69977;49.414;11.010;2024-01-30T03:49:16;-1.40;99.90
54461;DHT22;69977;49.414;11.010;2024-01-30T03:51:42;-1.40;99.90
54461;DHT22;69977;49.414;11.010;2024-01-30T03:54:08;-1.40;99.90
54461;DHT22;69977;49.414;11.010;2024-01-30T03:56:34;-1.50;99.90
54461;DHT22;69977;49.414;11.010;2024-01-30T03:59:00;-1.40;99.90
54461;DHT22;69977;49.414;11.010;2024-01-30T04:01:28;-1.40;99.90
54461;DHT22;69977;49.414;11.010;2024-01-30T04:03:54;-1.40;99.90
54461;DHT22;69977;49.414;11.010;2024-01-30T04:06:20;-1.40;99.90
54461;DHT22;69977;49.414;11.010;2024-01-30T04:08:46;-1.40;99.90
54461;DHT22;69977;49.414;11.010;2024-01-30T04:11:12;-1.40;99.90
54461;DHT22;69977;49.414;11.010;2024-01-30T04:13:38;-1.50;99.90
54461;DHT22;69977;49.414;11.010;2024-01-30T04:16:04;-1.50;99.90
54461;DHT22;69977;49.414;11.010;2024-01-30T04:18:30;-1.40;99.90
54461;DHT22;69977;49.414;11.010;2024-01-30T04:20:56;-1.40;99.90
54461;DHT22;69977;49.414;11.010;2024-01-30T04:23:22;-1.40;99.90
54461;DHT22;69977;49.414;11.010;2024-01-30T04:25:48;-1.50;99.90
54461;DHT22;69977;49.414;11.010;2024-01-30T04:28:14;-1.50;99.90
54461;DHT22;69977;49.414;11.010;2024-01-30T04:30:40;-1.60;99.90
54461;DHT22;69977;49.414;11.010;2024-01-30T04:33:06;-1.60;99.90
54461;DHT22;69977;49.414;11.010;2024-01-30T04:35:32;-1.50;99.90
54461;DHT22;69977;49.414;11.010;2024-01-30T04:37:57;-1.50;99.90
54461;DHT22;69977;49.414;11.010;2024-01-30T04:40:23;-1.60;99.90
54461;DHT22;69977;49.414;11.010;2024-01-30T04:42:49;-1.60;99.90
54461;DHT22;69977;49.414;11.010;2024-01-30T04:45:15;-1.60;99.90
54461;DHT22;69977;49.414;11.010;2024-01-30T04:47:41;-1.60;99.90
54461;DHT22;69977;49.414;11.010;2024-01-30T04:50:07;-1.60;99.90
54461;DHT22;69977;49.414;11.010;2024-01-30T04:52:34;-1.50;99.90
54461;DHT22;69977;49.414;11.010;2024-01-30T04:55:00;-1.40;99.90
54461;DHT22;69977;49.414;11.010;2024-01-30T04:57:26;-1.50;99.90
54461;DHT22;69977;49.414;11.010;2024-01-30T04:59:52;-1.40;99.90
54461;DHT22;69977;49.414;11.010;2024-01-30T05:02:18;-1.40;99.90
54461;DHT22;69977;49.414;11.010;2024-01-30T05:04:44;-1.40;99.90
54461;DHT22;69977;49.414;11.010;2024-01-30T05:07:09;-1.40;99.90
54461;DHT22;69977;49.414;11.010;2024-01-30T05:09:35;-1.40;99.90
54461;DHT22;69977;49.414;11.010;2024-01-30T05:12:01;-1.40;99.90
54461;DHT22;69977;49.414;11.010;2024-01-30T05:14:28;-1.30;99.90
54461;DHT22;69977;49.414;11.010;2024-01-30T05:16:53;-1.30;99.90
54461;DHT22;69977;49.414;11.010;2024-01-30T05:19:19;-1.30;99.90
54461;DHT22;69977;49.414;11.010;2024-01-30T05:21:47;-1.40;99.90
54461;DHT22;69977;49.414;11.010;2024-01-30T05:24:12;-1.30;99.90
54461;DHT22;69977;49.414;11.010;2024-01-30T05:26:38;-1.40;99.90
54461;DHT22;69977;49.414;11.010;2024-01-30T05:29:05;-1.40;99.90
54461;DHT22;69977;49.414;11.010;2024-01-30T05:31:31;-1.40;99.90
54461;DHT22;69977;49.414;11.010;2024-01-30T05:33:57;-1.40;99.90
54461;DHT22;69977;49.414;11.010;2024-01-30T05:36:23;-1.40;99.90
54461;DHT22;69977;49.414;11.010;2024-01-30T05:38:49;-1.30;99.90
54461;DHT22;69977;49.414;11.010;2024-01-30T05:41:14;-1.30;99.90
54461;DHT22;69977;49.414;11.010;2024-01-30T05:43:40;-1.30;99.90
54461;DHT22;69977;49.414;11.010;2024-01-30T05:46:06;-1.30;99.90
54461;DHT22;69977;49.414;11.010;2024-01-30T05:48:32;-1.30;99.90
54461;DHT22;69977;49.414;11.010;2024-01-30T05:50:58;-1.30;99.90
54461;DHT22;69977;49.414;11.010;2024-01-30T05:53:25;-1.30;99.90
54461;DHT22;69977;49.414;11.010;2024-01-30T05:55:51;-1.30;99.90
54461;DHT22;69977;49.414;11.010;2024-01-30T05:58:17;-1.30;99.90
54461;DHT22;69977;49.414;11.010;2024-01-30T06:00:43;-1.30;99.90
54461;DHT22;69977;49.414;11.010;2024-01-30T06:03:09;-1.30;99.90
54461;DHT22;69977;49.414;11.010;2024-01-30T06:05:34;-1.30;99.90
54461;DHT22;69977;49.414;11.010;2024-01-30T06:08:01;-1.30;99.90
54461;DHT22;69977;49.414;11.010;2024-01-30T06:10:27;-1.30;99.90
54461;DHT22;69977;49.414;11.010;2024-01-30T06:12:53;-1.20;99.90
54461;DHT22;69977;49.414;11.010;2024-01-30T06:15:19;-1.20;99.90
54461;DHT22;69977;49.414;11.010;2024-01-30T06:17:45;-1.20;99.90
54461;DHT22;69977;49.414;11.010;2024-01-30T06:20:11;-1.20;99.90
54461;DHT22;69977;49.414;11.010;2024-01-30T06:22:36;-1.20;99.90
54461;DHT22;69977;49.414;11.010;2024-01-30T06:25:02;-1.20;99.90
54461;DHT22;69977;49.414;11.010;2024-01-30T06:27:28;-1.20;99.90
54461;DHT22;69977;49.414;11.010;2024-01-30T06:29:55;-1.10;99.90
54461;DHT22;69977;49.414;11.010;2024-01-30T06:32:21;-1.10;99.90
54461;DHT22;69977;49.414;11.010;2024-01-30T06:34:46;-1.10;99.90
54461;DHT22;69977;49.414;11.010;2024-01-30T06:37:12;-1.10;99.90
54461;DHT22;69977;49.414;11.010;2024-01-30T06:39:38;-1.20;99.90
54461;DHT22;69977;49.414;11.010;2024-01-30T06:42:04;-1.10;99.90
54461;DHT22;69977;49.414;11.010;2024-01-30T06:44:30;-1.00;99.90
54461;DHT22;69977;49.414;11.010;2024-01-30T06:46:56;-1.10;99.90
54461;DHT22;69977;49.414;11.010;2024-01-30T06:49:22;-1.00;99.90
54461;DHT22;69977;49.414;11.010;2024-01-30T06:51:48;-1.00;99.90
54461;DHT22;69977;49.414;11.010;2024-01-30T06:54:14;-1.00;99.90
54461;DHT22;69977;49.414;11.010;2024-01-30T06:56:40;-1.10;99.90
54461;DHT22;69977;49.414;11.010;2024-01-30T06:59:06;-1.10;99.90
54461;DHT22;69977;49.414;11.010;2024-01-30T07:01:32;-1.10;99.90
54461;DHT22;69977;49.414;11.010;2024-01-30T07:03:58;-1.10;99.90
54461;DHT22;69977;49.414;11.010;2024-01-30T07:06:24;-1.10;99.90
54461;DHT22;69977;49.414;11.010;2024-01-30T07:08:50;-1.00;99.90
54461;DHT22;69977;49.414;11.010;2024-01-30T07:11:20;-1.00;99.90
54461;DHT22;69977;49.414;11.010;2024-01-30T07:13:48;-1.00;99.90
54461;DHT22;69977;49.414;11.010;2024-01-30T07:16:15;-1.00;99.90
54461;DHT22;69977;49.414;11.010;2024-01-30T07:18:41;-0.90;99.90
54461;DHT22;69977;49.414;11.010;2024-01-30T07:21:06;-0.90;99.90
54461;DHT22;69977;49.414;11.010;2024-01-30T07:23:32;-0.90;99.90
54461;DHT22;69977;49.414;11.010;2024-01-30T07:26:01;-0.90;99.90
54461;DHT22;69977;49.414;11.010;2024-01-30T07:28:27;-0.90;99.90
54461;DHT22;69977;49.414;11.010;2024-01-30T07:30:52;-0.80;99.90
54461;DHT22;69977;49.414;11.010;2024-01-30T07:33:18;-0.80;99.90
54461;DHT22;69977;49.414;11.010;2024-01-30T07:35:45;-0.80;99.90
54461;DHT22;69977;49.414;11.010;2024-01-30T07:38:11;-0.70;99.90
54461;DHT22;69977;49.414;11.010;2024-01-30T07:40:37;-0.70;99.90
54461;DHT22;69977;49.414;11.010;2024-01-30T07:43:03;-0.60;99.90
54461;DHT22;69977;49.414;11.010;2024-01-30T07:45:29;-0.60;99.90
54461;DHT22;69977;49.414;11.010;2024-01-30T07:47:59;-0.50;99.90
54461;DHT22;69977;49.414;11.010;2024-01-30T07:50:27;-0.40;99.90
54461;DHT22;69977;49.414;11.010;2024-01-30T07:52:55;-0.40;99.90
54461;DHT22;69977;49.414;11.010;2024-01-30T07:55:21;-0.30;99.90
54461;DHT22;69977;49.414;11.010;2024-01-30T07:57:52;-0.20;99.90
54461;DHT22;69977;49.414;11.010;2024-01-30T08:00:19;-0.10;99.90
54461;DHT22;69977;49.414;11.010;2024-01-30T08:02:48;0.00;99.90
54461;DHT22;69977;49.414;11.010;2024-01-30T08:05:14;0.10;99.90
54461;DHT22;69977;49.414;11.010;2024-01-30T08:07:43;0.20;99.90
54461;DHT22;69977;49.414;11.010;2024-01-30T08:10:11;0.20;99.90
54461;DHT22;69977;49.414;11.010;2024-01-30T08:12:37;0.30;99.90
54461;DHT22;69977;49.414;11.010;2024-01-30T08:15:04;0.40;99.90
54461;DHT22;69977;49.414;11.010;2024-01-30T08:17:30;0.50;99.90
54461;DHT22;69977;49.414;11.010;2024-01-30T08:19:56;0.60;99.90
54461;DHT22;69977;49.414;11.010;2024-01-30T08:22:22;0.60;99.90
54461;DHT22;69977;49.414;11.010;2024-01-30T08:24:48;0.70;99.90
54461;DHT22;69977;49.414;11.010;2024-01-30T08:27:14;0.80;99.90
54461;DHT22;69977;49.414;11.010;2024-01-30T08:29:40;0.90;99.90
54461;DHT22;69977;49.414;11.010;2024-01-30T08:32:06;1.00;99.90
54461;DHT22;69977;49.414;11.010;2024-01-30T08:34:32;1.10;99.90
54461;DHT22;69977;49.414;11.010;2024-01-30T08:36:58;1.10;99.90
54461;DHT22;69977;49.414;11.010;2024-01-30T08:39:24;1.20;99.90
54461;DHT22;69977;49.414;11.010;2024-01-30T08:41:50;1.30;99.90
54461;DHT22;69977;49.414;11.010;2024-01-30T08:44:16;1.30;99.90
54461;DHT22;69977;49.414;11.010;2024-01-30T08:46:46;1.40;99.90
54461;DHT22;69977;49.414;11.010;2024-01-30T08:49:13;1.40;99.90
54461;DHT22;69977;49.414;11.010;2024-01-30T08:51:39;1.60;99.90
54461;DHT22;69977;49.414;11.010;2024-01-30T08:54:05;1.60;99.90
54461;DHT22;69977;49.414;11.010;2024-01-30T08:56:31;1.70;99.90
54461;DHT22;69977;49.414;11.010;2024-01-30T08:58:57;1.80;99.90
54461;DHT22;69977;49.414;11.010;2024-01-30T09:01:23;2.00;99.90
54461;DHT22;69977;49.414;11.010;2024-01-30T09:03:48;2.00;99.90
54461;DHT22;69977;49.414;11.010;2024-01-30T09:06:14;2.10;99.90
54461;DHT22;69977;49.414;11.010;2024-01-30T09:08:40;2.20;99.90
54461;DHT22;69977;49.414;11.010;2024-01-30T09:11:13;2.30;99.90
54461;DHT22;69977;49.414;11.010;2024-01-30T09:13:39;2.40;99.90
54461;DHT22;69977;49.414;11.010;2024-01-30T09:16:05;2.40;99.90
54461;DHT22;69977;49.414;11.010;2024-01-30T09:18:32;2.50;99.90
54461;DHT22;69977;49.414;11.010;2024-01-30T09:20:58;2.70;99.90
54461;DHT22;69977;49.414;11.010;2024-01-30T09:23:24;2.80;99.90
54461;DHT22;69977;49.414;11.010;2024-01-30T09:25:50;3.00;99.90
54461;DHT22;69977;49.414;11.010;2024-01-30T09:28:19;3.10;99.90
54461;DHT22;69977;49.414;11.010;2024-01-30T09:30:45;3.30;99.90
54461;DHT22;69977;49.414;11.010;2024-01-30T09:33:11;3.40;99.90
54461;DHT22;69977;49.414;11.010;2024-01-30T09:35:37;3.40;99.90
54461;DHT22;69977;49.414;11.010;2024-01-30T09:38:03;3.50;99.90
54461;DHT22;69977;49.414;11.010;2024-01-30T09:40:29;3.50;99.90
54461;DHT22;69977;49.414;11.010;2024-01-30T09:42:55;3.60;99.90
54461;DHT22;69977;49.414;11.010;2024-01-30T09:45:25;3.50;99.90
54461;DHT22;69977;49.414;11.010;2024-01-30T09:47:52;3.60;99.90
54461;DHT22;69977;49.414;11.010;2024-01-30T09:50:19;3.80;99.90
54461;DHT22;69977;49.414;11.010;2024-01-30T09:52:46;3.90;99.90
54461;DHT22;69977;49.414;11.010;2024-01-30T09:55:12;4.00;99.90
54461;DHT22;69977;49.414;11.010;2024-01-30T09:57:39;4.00;99.90
54461;DHT22;69977;49.414;11.010;2024-01-30T10:00:07;4.10;99.90
54461;DHT22;69977;49.414;11.010;2024-01-30T10:02:40;4.10;99.90
54461;DHT22;69977;49.414;11.010;2024-01-30T10:05:08;4.20;99.90
54461;DHT22;69977;49.414;11.010;2024-01-30T10:07:34;4.30;99.90
54461;DHT22;69977;49.414;11.010;2024-01-30T10:10:00;4.30;99.90
54461;DHT22;69977;49.414;11.010;2024-01-30T10:12:27;4.40;99.90
54461;DHT22;69977;49.414;11.010;2024-01-30T10:14:55;4.60;99.90
54461;DHT22;69977;49.414;11.010;2024-01-30T10:17:21;4.60;99.90
54461;DHT22;69977;49.414;11.010;2024-01-30T10:19:50;4.70;99.90
54461;DHT22;69977;49.414;11.010;2024-01-30T10:22:17;4.80;99.90
54461;DHT22;69977;49.414;11.010;2024-01-30T10:24:43;4.80;99.90
54461;DHT22;69977;49.414;11.010;2024-01-30T10:27:10;4.80;99.90
54461;DHT22;69977;49.414;11.010;2024-01-30T10:29:37;4.90;99.90
54461;DHT22;69977;49.414;11.010;2024-01-30T10:32:06;5.00;99.90
54461;DHT22;69977;49.414;11.010;2024-01-30T10:34:33;5.10;99.90
54461;DHT22;69977;49.414;11.010;2024-01-30T10:37:09;5.10;99.90
54461;DHT22;69977;49.414;11.010;2024-01-30T10:39:41;5.30;99.90
54461;DHT22;69977;49.414;11.010;2024-01-30T10:42:15;5.30;99.90
54461;DHT22;69977;49.414;11.010;2024-01-30T10:44:59;5.30;99.90
54461;DHT22;69977;49.414;11.010;2024-01-30T10:47:27;5.40;99.90
54461;DHT22;69977;49.414;11.010;2024-01-30T10:49:54;5.40;99.90
54461;DHT22;69977;49.414;11.010;2024-01-30T10:52:21;5.50;99.90
54461;DHT22;69977;49.414;11.010;2024-01-30T10:54:50;5.60;99.90
54461;DHT22;69977;49.414;11.010;2024-01-30T10:57:17;5.50;99.90
54461;DHT22;69977;49.414;11.010;2024-01-30T10:59:43;5.50;99.90
54461;DHT22;69977;49.414;11.010;2024-01-30T11:02:10;5.70;99.90
54461;DHT22;69977;49.414;11.010;2024-01-30T11:04:46;5.80;99.90
54461;DHT22;69977;49.414;11.010;2024-01-30T11:07:16;5.90;99.90
54461;DHT22;69977;49.414;11.010;2024-01-30T11:09:49;5.90;99.90
54461;DHT22;69977;49.414;11.010;2024-01-30T11:12:15;5.90;99.90
54461;DHT22;69977;49.414;11.010;2024-01-30T11:14:41;5.90;99.90
54461;DHT22;69977;49.414;11.010;2024-01-30T11:17:10;5.90;99.90
54461;DHT22;69977;49.414;11.010;2024-01-30T11:19:38;6.00;99.90
54461;DHT22;69977;49.414;11.010;2024-01-30T11:22:06;6.00;99.90
54461;DHT22;69977;49.414;11.010;2024-01-30T11:24:39;6.20;99.90
54461;DHT22;69977;49.414;11.010;2024-01-30T11:27:09;6.20;99.90
54461;DHT22;69977;49.414;11.010;2024-01-30T11:29:36;6.10;99.90
54461;DHT22;69977;49.414;11.010;2024-01-30T11:32:02;6.30;99.90
54461;DHT22;69977;49.414;11.010;2024-01-30T11:34:28;6.40;99.90
54461;DHT22;69977;49.414;11.010;2024-01-30T11:37:09;6.50;99.90
54461;DHT22;69977;49.414;11.010;2024-01-30T11:39:36;6.60;99.90
54461;DHT22;69977;49.414;11.010;2024-01-30T11:42:03;6.70;99.90
54461;DHT22;69977;49.414;11.010;2024-01-30T11:44:31;6.80;99.90
54461;DHT22;69977;49.414;11.010;2024-01-30T11:46:56;6.80;99.90
54461;DHT22;69977;49.414;11.010;2024-01-30T11:49:23;6.70;99.90
54461;DHT22;69977;49.414;11.010;2024-01-30T11:51:49;6.80;99.90
54461;DHT22;69977;49.414;11.010;2024-01-30T11:54:15;6.80;99.90
54461;DHT22;69977;49.414;11.010;2024-01-30T11:56:42;6.90;99.90
54461;DHT22;69977;49.414;11.010;2024-01-30T11:59:09;6.90;99.90
54461;DHT22;69977;49.414;11.010;2024-01-30T12:01:35;7.00;99.90
54461;DHT22;69977;49.414;11.010;2024-01-30T12:04:01;7.00;99.90
54461;DHT22;69977;49.414;11.010;2024-01-30T12:06:27;7.00;99.90
54461;DHT22;69977;49.414;11.010;2024-01-30T12:09:00;7.10;99.90
54461;DHT22;69977;49.414;11.010;2024-01-30T12:11:27;7.20;99.90
54461;DHT22;69977;49.414;11.010;2024-01-30T12:13:56;7.30;99.90
54461;DHT22;69977;49.414;11.010;2024-01-30T12:16:22;7.30;99.90
54461;DHT22;69977;49.414;11.010;2024-01-30T12:18:48;7.40;99.90
54461;DHT22;69977;49.414;11.010;2024-01-30T12:21:17;7.40;99.90
54461;DHT22;69977;49.414;11.010;2024-01-30T12:23:44;7.50;99.90
54461;DHT22;69977;49.414;11.010;2024-01-30T12:26:11;7.60;99.90
54461;DHT22;69977;49.414;11.010;2024-01-30T12:28:37;7.60;99.90
54461;DHT22;69977;49.414;11.010;2024-01-30T12:31:12;7.60;99.90
54461;DHT22;69977;49.414;11.010;2024-01-30T12:33:38;7.50;99.90
54461;DHT22;69977;49.414;11.010;2024-01-30T12:36:04;7.50;99.90
54461;DHT22;69977;49.414;11.010;2024-01-30T12:38:30;7.50;99.90
54461;DHT22;69977;49.414;11.010;2024-01-30T12:40:56;7.60;99.90
54461;DHT22;69977;49.414;11.010;2024-01-30T12:43:27;7.70;99.90
54461;DHT22;69977;49.414;11.010;2024-01-30T12:45:53;7.80;99.90
54461;DHT22;69977;49.414;11.010;2024-01-30T12:48:19;7.80;99.90
54461;DHT22;69977;49.414;11.010;2024-01-30T12:50:45;7.80;99.90
54461;DHT22;69977;49.414;11.010;2024-01-30T12:53:11;7.80;99.90
54461;DHT22;69977;49.414;11.010;2024-01-30T12:55:38;7.80;99.90
54461;DHT22;69977;49.414;11.010;2024-01-30T12:58:04;7.80;99.90
54461;DHT22;69977;49.414;11.010;2024-01-30T13:00:30;7.90;99.90
54461;DHT22;69977;49.414;11.010;2024-01-30T13:02:56;7.80;99.90
54461;DHT22;69977;49.414;11.010;2024-01-30T13:05:21;7.90;99.90
54461;DHT22;69977;49.414;11.010;2024-01-30T13:07:47;7.90;99.90
54461;DHT22;69977;49.414;11.010;2024-01-30T13:10:13;8.00;99.90
54461;DHT22;69977;49.414;11.010;2024-01-30T13:12:40;8.00;99.90
54461;DHT22;69977;49.414;11.010;2024-01-30T13:15:06;8.10;99.90
54461;DHT22;69977;49.414;11.010;2024-01-30T13:17:33;8.20;99.90
54461;DHT22;69977;49.414;11.010;2024-01-30T13:19:59;8.10;99.90
54461;DHT22;69977;49.414;11.010;2024-01-30T13:22:25;8.10;99.90
54461;DHT22;69977;49.414;11.010;2024-01-30T13:24:50;8.20;99.90
54461;DHT22;69977;49.414;11.010;2024-01-30T13:27:17;8.20;99.90
54461;DHT22;69977;49.414;11.010;2024-01-30T13:29:43;8.30;99.90
54461;DHT22;69977;49.414;11.010;2024-01-30T13:32:09;8.30;99.90
54461;DHT22;69977;49.414;11.010;2024-01-30T13:34:35;8.30;99.90
54461;DHT22;69977;49.414;11.010;2024-01-30T13:37:00;8.40;99.90
54461;DHT22;69977;49.414;11.010;2024-01-30T13:39:26;8.40;99.90
54461;DHT22;69977;49.414;11.010;2024-01-30T13:41:53;8.40;99.90
54461;DHT22;69977;49.414;11.010;2024-01-30T13:44:19;8.30;99.90
54461;DHT22;69977;49.414;11.010;2024-01-30T13:46:46;8.40;99.90
54461;DHT22;69977;49.414;11.010;2024-01-30T13:49:12;8.40;99.90
54461;DHT22;69977;49.414;11.010;2024-01-30T13:51:38;8.30;99.90
54461;DHT22;69977;49.414;11.010;2024-01-30T13:54:04;8.40;99.90
54461;DHT22;69977;49.414;11.010;2024-01-30T13:56:30;8.50;99.90
54461;DHT22;69977;49.414;11.010;2024-01-30T13:58:56;8.40;99.90
54461;DHT22;69977;49.414;11.010;2024-01-30T14:01:23;8.40;99.90
54461;DHT22;69977;49.414;11.010;2024-01-30T14:03:49;8.40;99.90
54461;DHT22;69977;49.414;11.010;2024-01-30T14:06:15;8.40;99.90
54461;DHT22;69977;49.414;11.010;2024-01-30T14:08:41;8.30;99.90
54461;DHT22;69977;49.414;11.010;2024-01-30T14:11:07;8.30;99.90
54461;DHT22;69977;49.414;11.010;2024-01-30T14:13:33;8.20;99.90
54461;DHT22;69977;49.414;11.010;2024-01-30T14:15:59;8.20;99.90
54461;DHT22;69977;49.414;11.010;2024-01-30T14:18:25;8.10;99.90
54461;DHT22;69977;49.414;11.010;2024-01-30T14:20:53;8.10;99.90
54461;DHT22;69977;49.414;11.010;2024-01-30T14:23:21;8.00;99.90
54461;DHT22;69977;49.414;11.010;2024-01-30T14:25:47;8.00;99.90
54461;DHT22;69977;49.414;11.010;2024-01-30T14:28:13;7.90;99.90
54461;DHT22;69977;49.414;11.010;2024-01-30T14:30:38;7.90;99.90
54461;DHT22;69977;49.414;11.010;2024-01-30T14:33:04;7.80;99.90
54461;DHT22;69977;49.414;11.010;2024-01-30T14:35:30;7.70;99.90
54461;DHT22;69977;49.414;11.010;2024-01-30T14:37:56;7.70;99.90
54461;DHT22;69977;49.414;11.010;2024-01-30T14:40:22;7.70;99.90
54461;DHT22;69977;49.414;11.010;2024-01-30T14:42:48;7.60;99.90
54461;DHT22;69977;49.414;11.010;2024-01-30T14:45:14;7.50;99.90
54461;DHT22;69977;49.414;11.010;2024-01-30T14:47:40;7.50;99.90
54461;DHT22;69977;49.414;11.010;2024-01-30T14:50:06;7.40;99.90
54461;DHT22;69977;49.414;11.010;2024-01-30T14:52:33;7.40;99.90
54461;DHT22;69977;49.414;11.010;2024-01-30T14:54:59;7.30;99.90
54461;DHT22;69977;49.414;11.010;2024-01-30T14:57:25;7.30;99.90
54461;DHT22;69977;49.414;11.010;2024-01-30T14:59:51;7.40;99.90
54461;DHT22;69977;49.414;11.010;2024-01-30T15:02:17;7.20;99.90
54461;DHT22;69977;49.414;11.010;2024-01-30T15:04:43;7.20;99.90
54461;DHT22;69977;49.414;11.010;2024-01-30T15:07:09;7.10;99.90
54461;DHT22;69977;49.414;11.010;2024-01-30T15:09:35;7.10;99.90
54461;DHT22;69977;49.414;11.010;2024-01-30T15:12:00;7.00;99.90
54461;DHT22;69977;49.414;11.010;2024-01-30T15:14:26;6.80;99.90
54461;DHT22;69977;49.414;11.010;2024-01-30T15:16:52;6.90;99.90
54461;DHT22;69977;49.414;11.010;2024-01-30T15:19:18;6.80;99.90
54461;DHT22;69977;49.414;11.010;2024-01-30T15:21:44;6.70;99.90